sensor_id;sensor_type;location;lat;lon;timestamp;temperature;humidity
39847;DHT22;25517;52.422;10.782;2022-12-15T00:02:00;-5.80;99.90
39847;DHT22;25517;52.422;10.782;2022-12-15T00:04:45;-5.70;99.90
39847;DHT22;25517;52.422;10.782;2022-12-15T00:07:29;-5.80;99.90
39847;DHT22;25517;52.422;10.782;2022-12-15T00:10:13;-5.90;99.90
39847;DHT22;25517;52.422;10.782;2022-12-15T00:12:57;-6.00;99.90
39847;DHT22;25517;52.422;10.782;2022-12-15T00:15:41;-6.00;99.90
39847;DHT22;25517;52.422;10.782;2022-12-15T00:18:25;-6.00;99.90
39847;DHT22;25517;52.422;10.782;2022-12-15T00:21:09;-6.10;99.90
39847;DHT22;25517;52.422;10.782;2022-12-15T00:23:53;-6.20;99.90
39847;DHT22;25517;52.422;10.782;2022-12-15T00:26:37;-6.20;99.90
39847;DHT22;25517;52.422;10.782;2022-12-15T00:29:21;-6.20;99.90
39847;DHT22;25517;52.422;10.782;2022-12-15T00:32:05;-6.20;99.90
39847;DHT22;25517;52.422;10.782;2022-12-15T00:34:49;-6.20;99.90
39847;DHT22;25517;52.422;10.782;2022-12-15T00:37:33;-6.30;99.90
39847;DHT22;25517;52.422;10.782;2022-12-15T00:40:17;-6.30;99.90
39847;DHT22;25517;52.422;10.782;2022-12-15T00:42:42;-6.40;99.90
39847;DHT22;25517;52.422;10.782;2022-12-15T00:45:08;-6.40;99.90
39847;DHT22;25517;52.422;10.782;2022-12-15T00:47:35;-6.50;99.90
39847;DHT22;25517;52.422;10.782;2022-12-15T00:50:01;-6.40;99.90
39847;DHT22;25517;52.422;10.782;2022-12-15T00:52:45;-6.40;99.90
39847;DHT22;25517;52.422;10.782;2022-12-15T00:55:29;-6.40;99.90
39847;DHT22;25517;52.422;10.782;2022-12-15T00:58:13;-6.40;99.90
39847;DHT22;25517;52.422;10.782;2022-12-15T01:00:58;-6.40;99.90
39847;DHT22;25517;52.422;10.782;2022-12-15T01:03:48;-6.30;99.90
39847;DHT22;25517;52.422;10.782;2022-12-15T01:06:32;-6.20;99.90
39847;DHT22;25517;52.422;10.782;2022-12-15T01:09:16;-6.10;99.90
39847;DHT22;25517;52.422;10.782;2022-12-15T01:12:00;-5.90;99.90
39847;DHT22;25517;52.422;10.782;2022-12-15T01:14:44;-5.80;99.90
39847;DHT22;25517;52.422;10.782;2022-12-15T01:17:28;-5.70;99.90
39847;DHT22;25517;52.422;10.782;2022-12-15T01:20:12;-5.60;99.90
39847;DHT22;25517;52.422;10.782;2022-12-15T01:22:49;-5.50;99.90
39847;DHT22;25517;52.422;10.782;2022-12-15T01:25:16;-5.50;99.90
39847;DHT22;25517;52.422;10.782;2022-12-15T01:27:42;-5.40;99.90
39847;DHT22;25517;52.422;10.782;2022-12-15T01:30:10;-5.40;99.90
39847;DHT22;25517;52.422;10.782;2022-12-15T01:32:36;-5.30;99.90
39847;DHT22;25517;52.422;10.782;2022-12-15T01:35:03;-5.30;99.90
39847;DHT22;25517;52.422;10.782;2022-12-15T01:37:29;-5.30;99.90
39847;DHT22;25517;52.422;10.782;2022-12-15T01:39:54;-5.30;99.90
39847;DHT22;25517;52.422;10.782;2022-12-15T01:42:39;-5.30;99.90
39847;DHT22;25517;52.422;10.782;2022-12-15T01:47:54;-5.20;99.90
39847;DHT22;25517;52.422;10.782;2022-12-15T01:50:21;-5.20;99.90
39847;DHT22;25517;52.422;10.782;2022-12-15T01:52:48;-5.20;99.90
39847;DHT22;25517;52.422;10.782;2022-12-15T01:55:16;-5.20;99.90
39847;DHT22;25517;52.422;10.782;2022-12-15T01:57:43;-5.20;99.90
39847;DHT22;25517;52.422;10.782;2022-12-15T02:00:11;-5.20;99.90
39847;DHT22;25517;52.422;10.782;2022-12-15T02:02:37;-5.20;99.90
39847;DHT22;25517;52.422;10.782;2022-12-15T02:05:04;-5.10;99.90
39847;DHT22;25517;52.422;10.782;2022-12-15T02:07:30;-5.10;99.90
39847;DHT22;25517;52.422;10.782;2022-12-15T02:09:59;-5.10;99.90
39847;DHT22;25517;52.422;10.782;2022-12-15T02:16:06;-5.10;99.90
39847;DHT22;25517;52.422;10.782;2022-12-15T02:18:33;-5.10;99.90
39847;DHT22;25517;52.422;10.782;2022-12-15T02:32:07;-5.00;99.90
39847;DHT22;25517;52.422;10.782;2022-12-15T02:37:24;-5.00;99.90
39847;DHT22;25517;52.422;10.782;2022-12-15T02:39:50;-5.10;99.90
39847;DHT22;25517;52.422;10.782;2022-12-15T02:42:15;-5.10;99.90
39847;DHT22;25517;52.422;10.782;2022-12-15T02:44:48;-5.10;99.90
39847;DHT22;25517;52.422;10.782;2022-12-15T02:47:33;-5.10;99.90
39847;DHT22;25517;52.422;10.782;2022-12-15T02:50:29;-5.10;99.90
39847;DHT22;25517;52.422;10.782;2022-12-15T02:59:48;-5.20;99.90
39847;DHT22;25517;52.422;10.782;2022-12-15T03:01:50;-5.10;99.90
39847;DHT22;25517;52.422;10.782;2022-12-15T03:04:17;-5.20;99.90
39847;DHT22;25517;52.422;10.782;2022-12-15T03:06:43;-5.20;99.90
39847;DHT22;25517;52.422;10.782;2022-12-15T03:09:09;-5.20;99.90
39847;DHT22;25517;52.422;10.782;2022-12-15T03:11:35;-5.20;99.90
39847;DHT22;25517;52.422;10.782;2022-12-15T03:14:01;-5.20;99.90
39847;DHT22;25517;52.422;10.782;2022-12-15T03:16:26;-5.20;99.90
39847;DHT22;25517;52.422;10.782;2022-12-15T03:18:52;-5.20;99.90
39847;DHT22;25517;52.422;10.782;2022-12-15T03:21:17;-5.20;99.90
39847;DHT22;25517;52.422;10.782;2022-12-15T03:23:43;-5.20;99.90
39847;DHT22;25517;52.422;10.782;2022-12-15T03:26:08;-5.20;99.90
39847;DHT22;25517;52.422;10.782;2022-12-15T03:28:34;-5.20;99.90
39847;DHT22;25517;52.422;10.782;2022-12-15T03:31:00;-5.20;99.90
39847;DHT22;25517;52.422;10.782;2022-12-15T03:33:25;-5.10;99.90
39847;DHT22;25517;52.422;10.782;2022-12-15T03:35:51;-5.10;99.90
39847;DHT22;25517;52.422;10.782;2022-12-15T03:38:17;-5.00;99.90
39847;DHT22;25517;52.422;10.782;2022-12-15T03:40:42;-5.00;99.90
39847;DHT22;25517;52.422;10.782;2022-12-15T03:43:08;-4.90;99.90
39847;DHT22;25517;52.422;10.782;2022-12-15T03:45:33;-4.90;99.90
39847;DHT22;25517;52.422;10.782;2022-12-15T03:47:59;-4.80;99.90
39847;DHT22;25517;52.422;10.782;2022-12-15T03:50:26;-4.80;99.90
39847;DHT22;25517;52.422;10.782;2022-12-15T03:52:54;-4.80;99.90
39847;DHT22;25517;52.422;10.782;2022-12-15T03:55:20;-4.70;99.90
39847;DHT22;25517;52.422;10.782;2022-12-15T03:57:46;-4.60;99.90
39847;DHT22;25517;52.422;10.782;2022-12-15T04:00:13;-4.60;99.90
39847;DHT22;25517;52.422;10.782;2022-12-15T04:02:39;-4.60;99.90
39847;DHT22;25517;52.422;10.782;2022-12-15T04:05:05;-4.50;99.90
39847;DHT22;25517;52.422;10.782;2022-12-15T04:07:31;-4.50;99.90
39847;DHT22;25517;52.422;10.782;2022-12-15T04:09:56;-4.50;99.90
39847;DHT22;25517;52.422;10.782;2022-12-15T04:12:22;-4.50;99.90
39847;DHT22;25517;52.422;10.782;2022-12-15T04:14:47;-4.50;99.90
39847;DHT22;25517;52.422;10.782;2022-12-15T04:17:13;-4.50;99.90
39847;DHT22;25517;52.422;10.782;2022-12-15T04:19:39;-4.50;99.90
39847;DHT22;25517;52.422;10.782;2022-12-15T04:22:23;-4.50;99.90
39847;DHT22;25517;52.422;10.782;2022-12-15T04:24:48;-4.50;99.90
39847;DHT22;25517;52.422;10.782;2022-12-15T04:27:32;-4.50;99.90
39847;DHT22;25517;52.422;10.782;2022-12-15T04:30:16;-4.50;99.90
39847;DHT22;25517;52.422;10.782;2022-12-15T04:33:01;-4.60;99.90
39847;DHT22;25517;52.422;10.782;2022-12-15T04:35:46;-4.60;99.90
39847;DHT22;25517;52.422;10.782;2022-12-15T04:38:31;-4.60;99.90
39847;DHT22;25517;52.422;10.782;2022-12-15T04:41:16;-4.50;99.90
39847;DHT22;25517;52.422;10.782;2022-12-15T04:44:01;-4.50;99.90
39847;DHT22;25517;52.422;10.782;2022-12-15T04:46:45;-4.50;99.90
39847;DHT22;25517;52.422;10.782;2022-12-15T04:49:29;-4.50;99.90
39847;DHT22;25517;52.422;10.782;2022-12-15T04:52:13;-4.40;99.90
39847;DHT22;25517;52.422;10.782;2022-12-15T04:54:57;-4.40;99.90
39847;DHT22;25517;52.422;10.782;2022-12-15T04:57:41;-4.40;99.90
39847;DHT22;25517;52.422;10.782;2022-12-15T05:00:25;-4.30;99.90
39847;DHT22;25517;52.422;10.782;2022-12-15T05:03:09;-4.30;99.90
39847;DHT22;25517;52.422;10.782;2022-12-15T05:05:53;-4.20;99.90
39847;DHT22;25517;52.422;10.782;2022-12-15T05:08:37;-4.20;99.90
39847;DHT22;25517;52.422;10.782;2022-12-15T05:11:21;-4.10;99.90
39847;DHT22;25517;52.422;10.782;2022-12-15T05:14:05;-4.00;99.90
39847;DHT22;25517;52.422;10.782;2022-12-15T05:16:49;-4.00;99.90
39847;DHT22;25517;52.422;10.782;2022-12-15T05:19:33;-4.00;99.90
39847;DHT22;25517;52.422;10.782;2022-12-15T05:22:17;-4.00;99.90
39847;DHT22;25517;52.422;10.782;2022-12-15T05:25:02;-4.00;99.90
39847;DHT22;25517;52.422;10.782;2022-12-15T05:27:46;-4.10;99.90
39847;DHT22;25517;52.422;10.782;2022-12-15T05:30:30;-4.10;99.90
39847;DHT22;25517;52.422;10.782;2022-12-15T05:33:14;-4.10;99.90
39847;DHT22;25517;52.422;10.782;2022-12-15T05:35:40;-4.10;99.90
39847;DHT22;25517;52.422;10.782;2022-12-15T05:38:05;-4.20;99.90
39847;DHT22;25517;52.422;10.782;2022-12-15T05:40:31;-4.20;99.90
39847;DHT22;25517;52.422;10.782;2022-12-15T05:42:57;-4.30;99.90
39847;DHT22;25517;52.422;10.782;2022-12-15T05:45:23;-4.30;99.90
39847;DHT22;25517;52.422;10.782;2022-12-15T05:47:50;-4.30;99.90
39847;DHT22;25517;52.422;10.782;2022-12-15T05:50:16;-4.40;99.90
39847;DHT22;25517;52.422;10.782;2022-12-15T05:52:42;-4.40;99.90
39847;DHT22;25517;52.422;10.782;2022-12-15T05:55:07;-4.40;99.90
39847;DHT22;25517;52.422;10.782;2022-12-15T05:57:33;-4.40;99.90
39847;DHT22;25517;52.422;10.782;2022-12-15T05:59:58;-4.40;99.90
39847;DHT22;25517;52.422;10.782;2022-12-15T06:02:24;-4.40;99.90
39847;DHT22;25517;52.422;10.782;2022-12-15T06:04:49;-4.40;99.90
39847;DHT22;25517;52.422;10.782;2022-12-15T06:07:15;-4.30;99.90
39847;DHT22;25517;52.422;10.782;2022-12-15T06:09:40;-4.40;99.90
39847;DHT22;25517;52.422;10.782;2022-12-15T06:12:06;-4.40;99.90
39847;DHT22;25517;52.422;10.782;2022-12-15T06:14:31;-4.40;99.90
39847;DHT22;25517;52.422;10.782;2022-12-15T06:16:57;-4.40;99.90
39847;DHT22;25517;52.422;10.782;2022-12-15T06:19:24;-4.40;99.90
39847;DHT22;25517;52.422;10.782;2022-12-15T06:21:49;-4.40;99.90
39847;DHT22;25517;52.422;10.782;2022-12-15T06:24:15;-4.50;99.90
39847;DHT22;25517;52.422;10.782;2022-12-15T06:26:40;-4.40;99.90
39847;DHT22;25517;52.422;10.782;2022-12-15T06:29:09;-4.50;99.90
39847;DHT22;25517;52.422;10.782;2022-12-15T06:31:36;-4.50;99.90
39847;DHT22;25517;52.422;10.782;2022-12-15T06:34:06;-4.40;99.90
39847;DHT22;25517;52.422;10.782;2022-12-15T06:36:33;-4.40;99.90
39847;DHT22;25517;52.422;10.782;2022-12-15T06:39:00;-4.50;99.90
39847;DHT22;25517;52.422;10.782;2022-12-15T06:41:26;-4.40;99.90
39847;DHT22;25517;52.422;10.782;2022-12-15T06:43:53;-4.40;99.90
39847;DHT22;25517;52.422;10.782;2022-12-15T06:46:22;-4.50;99.90
39847;DHT22;25517;52.422;10.782;2022-12-15T06:48:48;-4.40;99.90
39847;DHT22;25517;52.422;10.782;2022-12-15T06:51:14;-4.40;99.90
39847;DHT22;25517;52.422;10.782;2022-12-15T06:53:41;-4.40;99.90
39847;DHT22;25517;52.422;10.782;2022-12-15T06:56:27;-4.30;99.90
39847;DHT22;25517;52.422;10.782;2022-12-15T06:58:53;-4.30;99.90
39847;DHT22;25517;52.422;10.782;2022-12-15T07:01:20;-4.30;99.90
39847;DHT22;25517;52.422;10.782;2022-12-15T07:03:46;-4.20;99.90
39847;DHT22;25517;52.422;10.782;2022-12-15T07:06:13;-4.20;99.90
39847;DHT22;25517;52.422;10.782;2022-12-15T07:08:40;-4.20;99.90
39847;DHT22;25517;52.422;10.782;2022-12-15T07:11:08;-4.10;99.90
39847;DHT22;25517;52.422;10.782;2022-12-15T07:13:34;-4.20;99.90
39847;DHT22;25517;52.422;10.782;2022-12-15T07:16:00;-4.10;99.90
39847;DHT22;25517;52.422;10.782;2022-12-15T07:18:27;-4.10;99.90
39847;DHT22;25517;52.422;10.782;2022-12-15T07:20:53;-4.10;99.90
39847;DHT22;25517;52.422;10.782;2022-12-15T07:23:19;-4.10;99.90
39847;DHT22;25517;52.422;10.782;2022-12-15T07:25:45;-4.00;99.90
39847;DHT22;25517;52.422;10.782;2022-12-15T07:28:10;-4.00;99.90
39847;DHT22;25517;52.422;10.782;2022-12-15T07:30:36;-4.00;99.90
39847;DHT22;25517;52.422;10.782;2022-12-15T07:33:02;-3.90;99.90
39847;DHT22;25517;52.422;10.782;2022-12-15T07:35:28;-3.90;99.90
39847;DHT22;25517;52.422;10.782;2022-12-15T07:37:53;-3.90;99.90
39847;DHT22;25517;52.422;10.782;2022-12-15T07:40:19;-3.90;99.90
39847;DHT22;25517;52.422;10.782;2022-12-15T07:42:44;-3.90;99.90
39847;DHT22;25517;52.422;10.782;2022-12-15T07:45:10;-3.80;99.90
39847;DHT22;25517;52.422;10.782;2022-12-15T07:47:36;-3.90;99.90
39847;DHT22;25517;52.422;10.782;2022-12-15T07:50:03;-3.90;99.90
39847;DHT22;25517;52.422;10.782;2022-12-15T07:52:29;-3.80;99.90
39847;DHT22;25517;52.422;10.782;2022-12-15T07:54:55;-3.80;99.90
39847;DHT22;25517;52.422;10.782;2022-12-15T07:57:21;-3.80;99.90
39847;DHT22;25517;52.422;10.782;2022-12-15T07:59:46;-3.80;99.90
39847;DHT22;25517;52.422;10.782;2022-12-15T08:02:12;-3.80;99.90
39847;DHT22;25517;52.422;10.782;2022-12-15T08:04:38;-3.80;99.90
39847;DHT22;25517;52.422;10.782;2022-12-15T08:07:05;-3.70;99.90
39847;DHT22;25517;52.422;10.782;2022-12-15T08:09:30;-3.70;99.90
39847;DHT22;25517;52.422;10.782;2022-12-15T08:11:56;-3.70;99.90
39847;DHT22;25517;52.422;10.782;2022-12-15T08:14:22;-3.60;99.90
39847;DHT22;25517;52.422;10.782;2022-12-15T08:16:48;-3.60;99.90
39847;DHT22;25517;52.422;10.782;2022-12-15T08:19:15;-3.60;99.90
39847;DHT22;25517;52.422;10.782;2022-12-15T08:21:42;-3.50;99.90
39847;DHT22;25517;52.422;10.782;2022-12-15T08:24:08;-3.50;99.90
39847;DHT22;25517;52.422;10.782;2022-12-15T08:26:34;-3.40;99.90
39847;DHT22;25517;52.422;10.782;2022-12-15T08:29:02;-3.40;99.90
39847;DHT22;25517;52.422;10.782;2022-12-15T08:31:28;-3.30;99.90
39847;DHT22;25517;52.422;10.782;2022-12-15T08:33:56;-3.30;99.90
39847;DHT22;25517;52.422;10.782;2022-12-15T08:36:22;-3.30;99.90
39847;DHT22;25517;52.422;10.782;2022-12-15T08:38:47;-3.20;99.90
39847;DHT22;25517;52.422;10.782;2022-12-15T08:41:15;-3.20;99.90
39847;DHT22;25517;52.422;10.782;2022-12-15T08:43:42;-3.20;99.90
39847;DHT22;25517;52.422;10.782;2022-12-15T08:46:08;-3.20;99.90
39847;DHT22;25517;52.422;10.782;2022-12-15T08:48:34;-3.10;99.90
39847;DHT22;25517;52.422;10.782;2022-12-15T08:51:00;-3.00;99.90
39847;DHT22;25517;52.422;10.782;2022-12-15T08:53:26;-2.90;99.90
39847;DHT22;25517;52.422;10.782;2022-12-15T08:55:52;-2.90;99.90
39847;DHT22;25517;52.422;10.782;2022-12-15T08:58:17;-2.80;99.90
39847;DHT22;25517;52.422;10.782;2022-12-15T09:00:43;-2.80;99.90
39847;DHT22;25517;52.422;10.782;2022-12-15T09:03:09;-2.70;99.90
39847;DHT22;25517;52.422;10.782;2022-12-15T09:05:35;-2.60;99.90
39847;DHT22;25517;52.422;10.782;2022-12-15T09:08:01;-2.60;99.90
39847;DHT22;25517;52.422;10.782;2022-12-15T09:10:27;-2.50;99.90
39847;DHT22;25517;52.422;10.782;2022-12-15T09:12:52;-2.40;99.90
39847;DHT22;25517;52.422;10.782;2022-12-15T09:15:18;-2.40;99.90
39847;DHT22;25517;52.422;10.782;2022-12-15T09:17:44;-2.40;99.90
39847;DHT22;25517;52.422;10.782;2022-12-15T09:20:10;-2.30;99.90
39847;DHT22;25517;52.422;10.782;2022-12-15T09:22:35;-2.30;99.90
39847;DHT22;25517;52.422;10.782;2022-12-15T09:25:02;-2.20;99.90
39847;DHT22;25517;52.422;10.782;2022-12-15T09:27:27;-2.20;99.90
39847;DHT22;25517;52.422;10.782;2022-12-15T09:29:55;-2.10;99.90
39847;DHT22;25517;52.422;10.782;2022-12-15T09:32:20;-2.00;99.90
39847;DHT22;25517;52.422;10.782;2022-12-15T09:34:46;-2.00;99.90
39847;DHT22;25517;52.422;10.782;2022-12-15T09:37:12;-1.90;99.90
39847;DHT22;25517;52.422;10.782;2022-12-15T09:39:37;-1.80;99.90
39847;DHT22;25517;52.422;10.782;2022-12-15T09:42:03;-1.80;99.90
39847;DHT22;25517;52.422;10.782;2022-12-15T09:44:30;-1.70;99.90
39847;DHT22;25517;52.422;10.782;2022-12-15T09:47:11;-1.60;99.90
39847;DHT22;25517;52.422;10.782;2022-12-15T09:49:55;-1.60;99.90
39847;DHT22;25517;52.422;10.782;2022-12-15T09:52:26;-1.50;99.90
39847;DHT22;25517;52.422;10.782;2022-12-15T09:54:53;-1.50;99.90
39847;DHT22;25517;52.422;10.782;2022-12-15T09:57:39;-1.40;99.90
39847;DHT22;25517;52.422;10.782;2022-12-15T10:00:36;-1.30;99.90
39847;DHT22;25517;52.422;10.782;2022-12-15T10:03:24;-1.20;99.90
39847;DHT22;25517;52.422;10.782;2022-12-15T10:06:07;-1.20;99.90
39847;DHT22;25517;52.422;10.782;2022-12-15T10:09:08;-1.20;99.90
39847;DHT22;25517;52.422;10.782;2022-12-15T10:14:15;-1.00;99.90
39847;DHT22;25517;52.422;10.782;2022-12-15T10:17:01;-0.90;99.90
39847;DHT22;25517;52.422;10.782;2022-12-15T10:19:41;-0.90;99.90
39847;DHT22;25517;52.422;10.782;2022-12-15T10:22:11;-0.80;99.90
39847;DHT22;25517;52.422;10.782;2022-12-15T10:24:38;-0.70;99.90
39847;DHT22;25517;52.422;10.782;2022-12-15T10:27:12;-0.70;99.90
39847;DHT22;25517;52.422;10.782;2022-12-15T10:29:57;-0.60;99.90
39847;DHT22;25517;52.422;10.782;2022-12-15T10:35:21;-0.30;99.90
39847;DHT22;25517;52.422;10.782;2022-12-15T10:37:47;-0.20;99.90
39847;DHT22;25517;52.422;10.782;2022-12-15T10:43:33;1.20;99.90
39847;DHT22;25517;52.422;10.782;2022-12-15T10:46:01;3.50;99.90
39847;DHT22;25517;52.422;10.782;2022-12-15T10:48:28;5.20;99.60
39847;DHT22;25517;52.422;10.782;2022-12-15T10:53:43;7.90;91.50
39847;DHT22;25517;52.422;10.782;2022-12-15T10:56:20;8.20;91.50
39847;DHT22;25517;52.422;10.782;2022-12-15T10:58:52;9.60;84.20
39847;DHT22;25517;52.422;10.782;2022-12-15T11:01:21;10.10;82.90
39847;DHT22;25517;52.422;10.782;2022-12-15T11:03:49;10.00;77.10
39847;DHT22;25517;52.422;10.782;2022-12-15T11:06:25;10.10;77.20
39847;DHT22;25517;52.422;10.782;2022-12-15T11:08:55;10.20;78.80
39847;DHT22;25517;52.422;10.782;2022-12-15T11:11:28;10.00;78.00
39847;DHT22;25517;52.422;10.782;2022-12-15T11:14:13;8.50;78.80
39847;DHT22;25517;52.422;10.782;2022-12-15T11:16:53;7.50;82.80
39847;DHT22;25517;52.422;10.782;2022-12-15T11:19:47;6.30;86.60
39847;DHT22;25517;52.422;10.782;2022-12-15T11:25:21;4.30;92.60
39847;DHT22;25517;52.422;10.782;2022-12-15T11:27:49;3.70;94.20
39847;DHT22;25517;52.422;10.782;2022-12-15T11:30:19;3.20;96.20
39847;DHT22;25517;52.422;10.782;2022-12-15T11:32:47;3.00;97.50
39847;DHT22;25517;52.422;10.782;2022-12-15T11:35:19;2.60;98.40
39847;DHT22;25517;52.422;10.782;2022-12-15T11:37:46;2.30;99.90
39847;DHT22;25517;52.422;10.782;2022-12-15T11:45:59;1.90;99.90
39847;DHT22;25517;52.422;10.782;2022-12-15T11:48:34;1.80;99.90
39847;DHT22;25517;52.422;10.782;2022-12-15T11:54:19;1.80;99.90
39847;DHT22;25517;52.422;10.782;2022-12-15T12:00:23;1.70;99.90
39847;DHT22;25517;52.422;10.782;2022-12-15T12:03:06;1.70;99.90
39847;DHT22;25517;52.422;10.782;2022-12-15T12:11:14;1.60;99.90
39847;DHT22;25517;52.422;10.782;2022-12-15T12:19:12;1.50;99.90
39847;DHT22;25517;52.422;10.782;2022-12-15T12:21:46;1.60;99.90
39847;DHT22;25517;52.422;10.782;2022-12-15T12:29:24;1.50;99.90
39847;DHT22;25517;52.422;10.782;2022-12-15T12:34:41;1.40;99.90
39847;DHT22;25517;52.422;10.782;2022-12-15T12:37:25;1.40;99.90
39847;DHT22;25517;52.422;10.782;2022-12-15T12:39:52;1.50;99.90
39847;DHT22;25517;52.422;10.782;2022-12-15T12:42:36;1.50;99.90
39847;DHT22;25517;52.422;10.782;2022-12-15T12:45:03;1.50;99.90
39847;DHT22;25517;52.422;10.782;2022-12-15T12:47:35;1.50;99.90
39847;DHT22;25517;52.422;10.782;2022-12-15T12:50:04;1.50;99.90
39847;DHT22;25517;52.422;10.782;2022-12-15T12:52:34;1.50;99.90
39847;DHT22;25517;52.422;10.782;2022-12-15T12:57:45;1.50;99.90
39847;DHT22;25517;52.422;10.782;2022-12-15T13:02:47;1.50;99.90
39847;DHT22;25517;52.422;10.782;2022-12-15T13:10:35;1.50;99.90
39847;DHT22;25517;52.422;10.782;2022-12-15T13:18:24;1.50;99.90
39847;DHT22;25517;52.422;10.782;2022-12-15T13:20:56;1.50;99.90
39847;DHT22;25517;52.422;10.782;2022-12-15T13:28:30;1.40;99.90
39847;DHT22;25517;52.422;10.782;2022-12-15T13:31:21;1.40;99.90
39847;DHT22;25517;52.422;10.782;2022-12-15T13:42:25;1.30;99.90
39847;DHT22;25517;52.422;10.782;2022-12-15T13:44:46;1.30;99.90
39847;DHT22;25517;52.422;10.782;2022-12-15T13:47:21;1.20;99.90
39847;DHT22;25517;52.422;10.782;2022-12-15T13:50:26;1.20;99.90
39847;DHT22;25517;52.422;10.782;2022-12-15T13:52:54;1.20;99.90
39847;DHT22;25517;52.422;10.782;2022-12-15T13:55:23;1.20;99.90
39847;DHT22;25517;52.422;10.782;2022-12-15T13:58:13;1.30;99.90
39847;DHT22;25517;52.422;10.782;2022-12-15T14:00:50;1.20;99.90
39847;DHT22;25517;52.422;10.782;2022-12-15T14:03:16;1.30;99.90
39847;DHT22;25517;52.422;10.782;2022-12-15T14:05:51;1.30;99.90
39847;DHT22;25517;52.422;10.782;2022-12-15T14:08:18;1.20;99.90
39847;DHT22;25517;52.422;10.782;2022-12-15T14:10:53;1.30;99.90
39847;DHT22;25517;52.422;10.782;2022-12-15T14:13:27;1.30;99.90
39847;DHT22;25517;52.422;10.782;2022-12-15T14:15:54;1.30;99.90
39847;DHT22;25517;52.422;10.782;2022-12-15T14:18:32;1.20;99.90
39847;DHT22;25517;52.422;10.782;2022-12-15T14:20:59;1.20;99.90
39847;DHT22;25517;52.422;10.782;2022-12-15T14:23:27;1.10;99.90
39847;DHT22;25517;52.422;10.782;2022-12-15T14:26:01;1.10;99.90
39847;DHT22;25517;52.422;10.782;2022-12-15T14:28:30;1.10;99.90
39847;DHT22;25517;52.422;10.782;2022-12-15T14:30:57;1.00;99.90
39847;DHT22;25517;52.422;10.782;2022-12-15T14:33:24;1.00;99.90
39847;DHT22;25517;52.422;10.782;2022-12-15T14:35:53;0.90;99.90
39847;DHT22;25517;52.422;10.782;2022-12-15T14:38:26;0.90;99.90
39847;DHT22;25517;52.422;10.782;2022-12-15T14:40:55;0.80;99.90
39847;DHT22;25517;52.422;10.782;2022-12-15T14:43:27;0.80;99.90
39847;DHT22;25517;52.422;10.782;2022-12-15T14:45:56;0.80;99.90
39847;DHT22;25517;52.422;10.782;2022-12-15T14:48:32;0.70;99.90
39847;DHT22;25517;52.422;10.782;2022-12-15T14:51:00;0.60;99.90
39847;DHT22;25517;52.422;10.782;2022-12-15T14:53:33;0.50;99.90
39847;DHT22;25517;52.422;10.782;2022-12-15T14:58:45;0.30;99.90
39847;DHT22;25517;52.422;10.782;2022-12-15T15:04:04;0.10;99.90
39847;DHT22;25517;52.422;10.782;2022-12-15T15:06:33;0.00;99.90
39847;DHT22;25517;52.422;10.782;2022-12-15T15:11:48;-0.30;99.90
39847;DHT22;25517;52.422;10.782;2022-12-15T15:14:40;-0.40;99.90
39847;DHT22;25517;52.422;10.782;2022-12-15T15:19:48;-0.50;99.90
39847;DHT22;25517;52.422;10.782;2022-12-15T15:24:59;-0.70;99.90
39847;DHT22;25517;52.422;10.782;2022-12-15T15:30:18;-0.90;99.90
39847;DHT22;25517;52.422;10.782;2022-12-15T15:32:57;-1.00;99.90
39847;DHT22;25517;52.422;10.782;2022-12-15T15:35:28;-1.00;99.90
39847;DHT22;25517;52.422;10.782;2022-12-15T15:38:00;-1.10;99.90
39847;DHT22;25517;52.422;10.782;2022-12-15T15:40:27;-1.10;99.90
39847;DHT22;25517;52.422;10.782;2022-12-15T15:42:53;-1.10;99.90
39847;DHT22;25517;52.422;10.782;2022-12-15T15:45:19;-1.10;99.90
39847;DHT22;25517;52.422;10.782;2022-12-15T15:47:48;-1.10;99.90
39847;DHT22;25517;52.422;10.782;2022-12-15T15:50:15;-1.30;99.90
39847;DHT22;25517;52.422;10.782;2022-12-15T15:52:42;-1.20;99.90
39847;DHT22;25517;52.422;10.782;2022-12-15T15:55:12;-1.30;99.90
39847;DHT22;25517;52.422;10.782;2022-12-15T15:57:38;-1.40;99.90
39847;DHT22;25517;52.422;10.782;2022-12-15T16:00:16;-1.50;99.90
39847;DHT22;25517;52.422;10.782;2022-12-15T16:02:43;-1.40;99.90
39847;DHT22;25517;52.422;10.782;2022-12-15T16:05:08;-1.30;99.90
39847;DHT22;25517;52.422;10.782;2022-12-15T16:07:34;-1.30;99.90
39847;DHT22;25517;52.422;10.782;2022-12-15T16:10:00;-1.30;99.90
39847;DHT22;25517;52.422;10.782;2022-12-15T16:12:28;-1.30;99.90
39847;DHT22;25517;52.422;10.782;2022-12-15T16:14:54;-1.40;99.90
39847;DHT22;25517;52.422;10.782;2022-12-15T16:17:21;-1.40;99.90
39847;DHT22;25517;52.422;10.782;2022-12-15T16:19:47;-1.30;99.90
39847;DHT22;25517;52.422;10.782;2022-12-15T16:22:17;-1.30;99.90
39847;DHT22;25517;52.422;10.782;2022-12-15T16:24:44;-1.30;99.90
39847;DHT22;25517;52.422;10.782;2022-12-15T16:27:11;-1.30;99.90
39847;DHT22;25517;52.422;10.782;2022-12-15T16:29:37;-1.40;99.90
39847;DHT22;25517;52.422;10.782;2022-12-15T16:32:08;-1.50;99.90
39847;DHT22;25517;52.422;10.782;2022-12-15T16:34:34;-1.50;99.90
39847;DHT22;25517;52.422;10.782;2022-12-15T16:37:01;-1.60;99.90
39847;DHT22;25517;52.422;10.782;2022-12-15T16:39:31;-1.60;99.90
39847;DHT22;25517;52.422;10.782;2022-12-15T16:41:57;-1.60;99.90
39847;DHT22;25517;52.422;10.782;2022-12-15T16:44:24;-1.70;99.90
39847;DHT22;25517;52.422;10.782;2022-12-15T16:46:50;-1.80;99.90
39847;DHT22;25517;52.422;10.782;2022-12-15T16:49:15;-1.70;99.90
39847;DHT22;25517;52.422;10.782;2022-12-15T16:51:43;-1.90;99.90
39847;DHT22;25517;52.422;10.782;2022-12-15T16:54:22;-1.90;99.90
39847;DHT22;25517;52.422;10.782;2022-12-15T16:56:48;-2.00;99.90
39847;DHT22;25517;52.422;10.782;2022-12-15T16:59:15;-2.00;99.90
39847;DHT22;25517;52.422;10.782;2022-12-15T17:01:41;-2.10;99.90
39847;DHT22;25517;52.422;10.782;2022-12-15T17:04:07;-2.10;99.90
39847;DHT22;25517;52.422;10.782;2022-12-15T17:06:32;-2.10;99.90
39847;DHT22;25517;52.422;10.782;2022-12-15T17:08:58;-2.10;99.90
39847;DHT22;25517;52.422;10.782;2022-12-15T17:11:25;-2.10;99.90
39847;DHT22;25517;52.422;10.782;2022-12-15T17:13:53;-2.10;99.90
39847;DHT22;25517;52.422;10.782;2022-12-15T17:16:21;-2.10;99.90
39847;DHT22;25517;52.422;10.782;2022-12-15T17:18:48;-2.10;99.90
39847;DHT22;25517;52.422;10.782;2022-12-15T17:21:27;-2.20;99.90
39847;DHT22;25517;52.422;10.782;2022-12-15T17:24:04;-2.20;99.90
39847;DHT22;25517;52.422;10.782;2022-12-15T17:26:34;-2.20;99.90
39847;DHT22;25517;52.422;10.782;2022-12-15T17:29:11;-2.10;99.90
39847;DHT22;25517;52.422;10.782;2022-12-15T17:31:38;-2.20;99.90
39847;DHT22;25517;52.422;10.782;2022-12-15T17:36:46;-2.30;99.90
39847;DHT22;25517;52.422;10.782;2022-12-15T17:39:11;-2.30;99.90
39847;DHT22;25517;52.422;10.782;2022-12-15T17:41:38;-2.20;99.90
39847;DHT22;25517;52.422;10.782;2022-12-15T17:44:16;-2.10;99.90
39847;DHT22;25517;52.422;10.782;2022-12-15T17:46:43;-1.90;99.90